x

West Santa Barbara 38 Nm West Of Santa Barbara, Ca (46054) Wave Buoy

8:50am - Sat 30th Aug 2014 All times are PDT. -7 hours from GMT.

  • Sig Wave height 5.2ft
  • Swell Direction
  • Peak Period 7s
  • Average Period 6s
  • Wind
    20mph, 22mph gusts
  • Sea Temp 61°f
  • Air Temp 61°f
  • Sea Pressure 1009.6mb
  • West Santa Barbara  38 Nm West Of Santa Barbara, Ca
  • West Santa Barbara  38 Nm West Of Santa Barbara, Ca

More Historic Weather Station data

Upgrade to MSW Pro to gain access to the past 30 days of data for over 8000 Wavebouys and Weather Stations around the globe.

Join Pro

Comparision Forecast

View Surf forecast
   
Sat 08/30 8:50am 5ft 7s 6s 20 22 mph 1009.6mb 61f 61f
7:50am 5ft 7s 5s 16 20 mph 1009.5mb 61f 60f
6:50am 5.5ft 7s 5s 22 27 mph 1009mb 61f 60f
5:50am 5.5ft 7s 5s 27 29 mph 1008.3mb 61f 59f
4:50am 6ft 5s 5s 22 27 mph 1007.9mb 61f 60f
3:50am 6ft 6s 6s 25 29 mph 1008mb 61f 59f
2:50am 6.5ft 6s 5s 27 34 mph 1008mb 61f 59f
1:50am 7ft 6s 5s 29 34 mph 1008.3mb 62f 60f
12:50am 6.5ft 7s 5s 29 38 mph 1008.5mb 62f 61f
Fri 08/29 11:50pm 6.5ft 6s 5s 29 34 mph 1008.9mb 63f 61f
10:50pm 6ft 6s 5s 27 34 mph 1009.1mb 63f 61f
9:50pm 6ft 6s 5s 27 34 mph 1009.6mb 63f 61f
8:50pm 6ft 6s 5s 27 31 mph 1009.5mb 63f 62f
7:50pm 5.5ft 6s 5s 27 31 mph 1009.2mb 62f 62f
6:50pm 6ft 6s 5s 27 31 mph 1009.3mb 62f 62f
5:50pm 5.5ft 6s 5s 27 31 mph 1009.7mb 62f 62f
4:50pm 5ft 6s 5s 25 29 mph 1010.1mb 62f 62f
3:50pm 5ft 6s 5s 22 27 mph 1010.6mb 62f 62f
2:50pm 5ft 10s 5s 22 29 mph 1010.8mb 62f 62f
1:50pm 5ft 5s 5s 20 25 mph 1011.2mb 62f 62f
12:50pm 5ft 6s 5s 22 27 mph 1011.4mb 62f 62f
11:50am 4.5ft 10s 5s 22 29 mph 1011.4mb 62f 61f
10:50am 6ft 11s 6s 22 27 mph 1011.7mb 62f 60f
9:50am 5ft 6s 5s 22 27 mph 1011.8mb 62f 60f
8:50am 4.5ft 11s 5s 25 29 mph 1011.6mb 62f 60f
7:50am 5ft 6s 5s 22 29 mph 1011.6mb 62f 61f
6:50am 5ft 6s 5s 22 27 mph 1011.4mb 62f 61f
5:50am 5.5ft 5s 5s 25 29 mph 1011.2mb 62f 61f
4:50am 6ft 6s 5s 27 34 mph 1011mb 62f 61f
3:50am 5.5ft 6s 5s 27 34 mph 1010.9mb 62f 61f
2:50am 6ft 6s 5s 29 34 mph 1010.8mb 62f 61f
1:50am 5.5ft 6s 5s 27 31 mph 1011mb 62f 61f
12:50am 6ft 11s 5s 25 31 mph 1011.6mb 63f 62f
Thu 08/28 11:50pm 6.5ft 11s 6s 29 34 mph 1012.1mb 63f 62f
10:50pm 5.5ft 11s 5s 27 34 mph 1012.6mb 63f 62f
9:50pm 6ft 12s 6s 25 29 mph 1012.9mb 63f 62f
8:50pm 5ft 11s 5s 22 27 mph 1012.7mb 63f 63f
7:50pm 6ft 12s 5s 22 27 mph 1012.7mb 63f 63f
6:50pm 6ft 12s 5s 22 27 mph 1012.5mb 63f 63f
5:50pm 6ft 12s 6s 25 29 mph 1012.4mb 63f 63f
4:50pm 5ft 13s 6s 25 27 mph 1013.3mb 63f 63f
3:50pm 6ft 12s 6s 22 27 mph 1014mb 62f 63f
2:50pm 5.5ft 11s 6s 22 27 mph 1014.4mb 62f 63f
1:50pm 6ft 12s 6s 22 27 mph 1014.7mb 62f 63f
12:50pm 6ft 13s 6s 22 27 mph 1015.2mb 63f 62f
11:50am 6ft 13s 6s 22 27 mph 1015.4mb 62f 62f
10:50am 5ft 12s 6s 20 25 mph 1016mb 62f 62f
9:50am 5.5ft 12s 6s 22 27 mph 1015.8mb 62f 62f
8:50am 5.5ft 13s 6s 20 25 mph 1015.6mb 62f 62f
7:50am 6ft 13s 6s 20 25 mph 1015.4mb 62f 62f
6:50am 6ft 13s 6s 20 25 mph 1015.2mb 62f 62f
5:50am 6ft 13s 7s 20 25 mph 1015.1mb 62f 61f
4:50am 5.5ft 14s 6s 20 25 mph 1014.9mb 62f 62f
3:50am 6ft 13s 7s 20 25 mph 1015.1mb 62f 62f
2:50am 6ft 13s 7s 20 25 mph 1015.3mb 62f 63f
1:50am 5.5ft 13s 7s 22 25 mph 1015.8mb 62f 63f
12:50am 5.5ft 14s 6s 20 22 mph 1015.8mb 62f 63f
Wed 08/27 11:50pm 5ft 14s 6s 20 25 mph 1015.9mb 62f 63f
10:50pm 5ft 14s 6s 20 25 mph 1016mb 62f 64f
9:50pm 5ft 14s 6s 20 22 mph 1016mb 63f 64f
8:50pm 5ft 14s 6s 20 22 mph 1015.6mb 63f 64f
7:50pm 5ft 14s 7s 18 20 mph 1015.4mb 63f 64f
6:50pm 5ft 14s 7s 16 20 mph 1015.3mb 63f 64f
5:50pm 5ft 15s 7s 18 20 mph 1015.3mb 64f 64f
4:50pm 5ft 15s 8s 16 18 mph 1015.5mb 64f 64f
3:50pm 5ft 15s 8s 16 18 mph 1015.7mb 64f 64f
2:50pm 5ft 15s 8s 16 18 mph 1016.1mb 63f 64f
1:50pm 4.5ft 16s 8s 13 18 mph 1016.7mb 63f 64f
12:50pm 5ft 15s 9s 13 16 mph 1017mb 63f 63f
11:50am 4.5ft 16s 8s 13 16 mph 1017.3mb 63f 63f
10:50am 4.5ft 13s 8s 11 13 mph 1017.2mb 63f 63f
9:50am 4.5ft 15s 8s 4 7 mph 1016.9mb 63f 64f
8:50am 5ft 16s 8s 7
mph
1016.5mb 63f 64f
7:50am 4.5ft 15s 8s 4
mph
1016.4mb 63f 64f
6:50am 4.5ft 16s 8s 4 7 mph 1016mb 63f 63f
5:50am 5ft 16s 8s 11
mph
1015.3mb 64f 63f
4:50am 5ft 16s 7s 16 18 mph 1014.9mb 64f 63f
3:50am 5ft 16s 7s 16 18 mph 1014.6mb 64f 63f
2:50am 4.5ft 16s 7s 16 20 mph 1014.7mb 64f 63f
1:50am 4.5ft 16s 6s 16 20 mph 1014.5mb 64f 63f
12:50am 4.5ft 16s 6s 18 22 mph 1014.4mb 64f 63f
Tue 08/26 11:50pm 4.5ft 16s 6s 18 22 mph 1014.4mb 64f 63f
10:50pm 5ft 15s 6s 20 25 mph 1014.4mb 64f 63f
9:50pm 4.5ft 16s 6s 20 25 mph 1014.2mb 64f 64f
8:50pm 4.5ft 16s 5s 20 25 mph 1013.7mb 65f 64f
7:50pm 4.5ft 8s 6s 18 22 mph 1013.5mb 65f 64f
6:50pm 4.5ft 16s 7s 16 18 mph 1013.2mb 65f 65f
5:50pm 4.5ft 17s 7s 16 18 mph 1013.5mb 65f 65f
4:50pm 4ft 17s 7s 16 18 mph 1013.9mb 65f 65f